sensor_id;sensor_type;location;lat;lon;timestamp;temperature;humidity
14741;DHT22;7462;53.530;9.414;2023-02-11T00:00:39;6.10;99.90
14741;DHT22;7462;53.530;9.414;2023-02-11T00:03:08;6.10;99.90
14741;DHT22;7462;53.530;9.414;2023-02-11T00:05:36;6.00;99.90
14741;DHT22;7462;53.530;9.414;2023-02-11T00:08:04;6.00;99.90
14741;DHT22;7462;53.530;9.414;2023-02-11T00:10:32;6.00;99.90
14741;DHT22;7462;53.530;9.414;2023-02-11T00:13:00;6.00;99.90
14741;DHT22;7462;53.530;9.414;2023-02-11T00:15:30;6.00;99.90
14741;DHT22;7462;53.530;9.414;2023-02-11T00:17:58;6.10;99.90
14741;DHT22;7462;53.530;9.414;2023-02-11T00:20:26;6.10;99.90
14741;DHT22;7462;53.530;9.414;2023-02-11T00:22:54;6.10;99.90
14741;DHT22;7462;53.530;9.414;2023-02-11T00:25:22;6.00;99.90
14741;DHT22;7462;53.530;9.414;2023-02-11T00:27:50;6.10;99.90
14741;DHT22;7462;53.530;9.414;2023-02-11T00:30:18;6.20;99.90
14741;DHT22;7462;53.530;9.414;2023-02-11T00:32:47;6.10;99.90
14741;DHT22;7462;53.530;9.414;2023-02-11T00:35:16;6.10;99.90
14741;DHT22;7462;53.530;9.414;2023-02-11T00:37:44;6.10;99.90
14741;DHT22;7462;53.530;9.414;2023-02-11T00:40:12;6.10;99.90
14741;DHT22;7462;53.530;9.414;2023-02-11T00:42:41;6.10;99.90
14741;DHT22;7462;53.530;9.414;2023-02-11T00:45:09;6.20;99.90
14741;DHT22;7462;53.530;9.414;2023-02-11T00:47:38;6.20;99.90
14741;DHT22;7462;53.530;9.414;2023-02-11T00:50:07;6.20;99.90
14741;DHT22;7462;53.530;9.414;2023-02-11T00:52:36;6.20;99.90
14741;DHT22;7462;53.530;9.414;2023-02-11T00:55:04;6.20;99.90
14741;DHT22;7462;53.530;9.414;2023-02-11T00:57:32;6.20;99.90
14741;DHT22;7462;53.530;9.414;2023-02-11T01:00:00;6.20;99.90
14741;DHT22;7462;53.530;9.414;2023-02-11T01:02:28;6.10;99.90
14741;DHT22;7462;53.530;9.414;2023-02-11T01:04:57;6.10;99.90
14741;DHT22;7462;53.530;9.414;2023-02-11T01:07:27;6.10;99.90
14741;DHT22;7462;53.530;9.414;2023-02-11T01:09:55;6.10;99.90
14741;DHT22;7462;53.530;9.414;2023-02-11T01:12:24;6.10;99.90
14741;DHT22;7462;53.530;9.414;2023-02-11T01:14:52;6.10;99.90
14741;DHT22;7462;53.530;9.414;2023-02-11T01:17:20;6.10;99.90
14741;DHT22;7462;53.530;9.414;2023-02-11T01:19:49;6.10;99.90
14741;DHT22;7462;53.530;9.414;2023-02-11T01:22:17;6.10;99.90
14741;DHT22;7462;53.530;9.414;2023-02-11T01:24:47;6.10;99.90
14741;DHT22;7462;53.530;9.414;2023-02-11T01:27:15;6.10;99.90
14741;DHT22;7462;53.530;9.414;2023-02-11T01:29:43;6.10;99.90
14741;DHT22;7462;53.530;9.414;2023-02-11T01:32:12;6.10;99.90
14741;DHT22;7462;53.530;9.414;2023-02-11T01:34:40;6.10;99.90
14741;DHT22;7462;53.530;9.414;2023-02-11T01:37:08;6.10;99.90
14741;DHT22;7462;53.530;9.414;2023-02-11T01:39:36;6.10;99.90
14741;DHT22;7462;53.530;9.414;2023-02-11T01:42:06;6.10;99.90
14741;DHT22;7462;53.530;9.414;2023-02-11T01:44:36;6.10;99.90
14741;DHT22;7462;53.530;9.414;2023-02-11T01:47:05;6.10;99.90
14741;DHT22;7462;53.530;9.414;2023-02-11T01:49:35;6.20;99.90
14741;DHT22;7462;53.530;9.414;2023-02-11T01:52:08;6.10;99.90
14741;DHT22;7462;53.530;9.414;2023-02-11T01:54:40;6.10;99.90
14741;DHT22;7462;53.530;9.414;2023-02-11T01:57:31;6.20;99.90
14741;DHT22;7462;53.530;9.414;2023-02-11T02:00:07;6.20;99.90
14741;DHT22;7462;53.530;9.414;2023-02-11T02:02:47;6.20;99.90
14741;DHT22;7462;53.530;9.414;2023-02-11T02:05:22;6.20;99.90
14741;DHT22;7462;53.530;9.414;2023-02-11T02:07:59;6.20;99.90
14741;DHT22;7462;53.530;9.414;2023-02-11T02:10:30;6.20;99.90
14741;DHT22;7462;53.530;9.414;2023-02-11T02:13:02;6.20;99.90
14741;DHT22;7462;53.530;9.414;2023-02-11T02:15:32;6.20;99.90
14741;DHT22;7462;53.530;9.414;2023-02-11T02:18:10;6.20;99.90
14741;DHT22;7462;53.530;9.414;2023-02-11T02:21:19;6.20;99.90
14741;DHT22;7462;53.530;9.414;2023-02-11T02:27:13;6.20;99.90
14741;DHT22;7462;53.530;9.414;2023-02-11T02:30:15;6.20;99.90
14741;DHT22;7462;53.530;9.414;2023-02-11T02:33:01;6.20;99.90
14741;DHT22;7462;53.530;9.414;2023-02-11T02:35:54;6.20;99.90
14741;DHT22;7462;53.530;9.414;2023-02-11T02:38:29;6.30;99.90
14741;DHT22;7462;53.530;9.414;2023-02-11T02:41:02;6.30;99.90
14741;DHT22;7462;53.530;9.414;2023-02-11T02:43:32;6.30;99.90
14741;DHT22;7462;53.530;9.414;2023-02-11T02:46:13;6.20;99.90
14741;DHT22;7462;53.530;9.414;2023-02-11T02:48:44;6.30;99.90
14741;DHT22;7462;53.530;9.414;2023-02-11T02:54:34;6.30;99.90
14741;DHT22;7462;53.530;9.414;2023-02-11T02:57:20;6.30;99.90
14741;DHT22;7462;53.530;9.414;2023-02-11T03:03:04;6.40;99.90
14741;DHT22;7462;53.530;9.414;2023-02-11T03:05:42;6.40;99.90
14741;DHT22;7462;53.530;9.414;2023-02-11T03:08:17;6.40;99.90
14741;DHT22;7462;53.530;9.414;2023-02-11T03:10:52;6.40;99.90
14741;DHT22;7462;53.530;9.414;2023-02-11T03:13:25;6.40;99.90
14741;DHT22;7462;53.530;9.414;2023-02-11T03:15:56;6.50;99.90
14741;DHT22;7462;53.530;9.414;2023-02-11T03:18:28;6.40;99.90
14741;DHT22;7462;53.530;9.414;2023-02-11T03:21:00;6.50;99.90
14741;DHT22;7462;53.530;9.414;2023-02-11T03:23:33;6.50;99.90
14741;DHT22;7462;53.530;9.414;2023-02-11T03:26:08;6.50;99.90
14741;DHT22;7462;53.530;9.414;2023-02-11T03:28:42;6.50;99.90
14741;DHT22;7462;53.530;9.414;2023-02-11T03:31:16;6.50;99.90
14741;DHT22;7462;53.530;9.414;2023-02-11T03:33:51;6.50;99.90
14741;DHT22;7462;53.530;9.414;2023-02-11T03:36:25;6.60;99.90
14741;DHT22;7462;53.530;9.414;2023-02-11T03:38:56;6.50;99.90
14741;DHT22;7462;53.530;9.414;2023-02-11T03:41:24;6.60;99.90
14741;DHT22;7462;53.530;9.414;2023-02-11T03:43:54;6.60;99.90
14741;DHT22;7462;53.530;9.414;2023-02-11T03:46:26;6.60;99.90
14741;DHT22;7462;53.530;9.414;2023-02-11T03:48:59;6.60;99.90
14741;DHT22;7462;53.530;9.414;2023-02-11T03:51:32;6.60;99.90
14741;DHT22;7462;53.530;9.414;2023-02-11T03:54:02;6.60;99.90
14741;DHT22;7462;53.530;9.414;2023-02-11T03:56:38;6.60;99.90
14741;DHT22;7462;53.530;9.414;2023-02-11T03:59:08;6.60;99.90
14741;DHT22;7462;53.530;9.414;2023-02-11T04:01:36;6.60;99.90
14741;DHT22;7462;53.530;9.414;2023-02-11T04:04:04;6.60;99.90
14741;DHT22;7462;53.530;9.414;2023-02-11T04:06:33;6.60;99.90
14741;DHT22;7462;53.530;9.414;2023-02-11T04:09:02;6.70;99.90
14741;DHT22;7462;53.530;9.414;2023-02-11T04:11:30;6.60;99.90
14741;DHT22;7462;53.530;9.414;2023-02-11T04:13:58;6.60;99.90
14741;DHT22;7462;53.530;9.414;2023-02-11T04:16:26;6.60;99.90
14741;DHT22;7462;53.530;9.414;2023-02-11T04:18:56;6.70;99.90
14741;DHT22;7462;53.530;9.414;2023-02-11T04:21:24;6.60;99.90
14741;DHT22;7462;53.530;9.414;2023-02-11T04:23:53;6.70;99.90
14741;DHT22;7462;53.530;9.414;2023-02-11T04:26:21;6.70;99.90
14741;DHT22;7462;53.530;9.414;2023-02-11T04:28:49;6.80;99.90
14741;DHT22;7462;53.530;9.414;2023-02-11T04:31:17;6.80;99.90
14741;DHT22;7462;53.530;9.414;2023-02-11T04:33:45;6.70;99.90
14741;DHT22;7462;53.530;9.414;2023-02-11T04:36:13;6.70;99.90
14741;DHT22;7462;53.530;9.414;2023-02-11T04:38:41;6.70;99.90
14741;DHT22;7462;53.530;9.414;2023-02-11T04:41:11;6.70;99.90
14741;DHT22;7462;53.530;9.414;2023-02-11T04:43:39;6.80;99.90
14741;DHT22;7462;53.530;9.414;2023-02-11T04:46:07;6.80;99.90
14741;DHT22;7462;53.530;9.414;2023-02-11T04:48:35;6.80;99.90
14741;DHT22;7462;53.530;9.414;2023-02-11T04:51:03;6.80;99.90
14741;DHT22;7462;53.530;9.414;2023-02-11T04:53:31;6.80;99.90
14741;DHT22;7462;53.530;9.414;2023-02-11T04:55:59;6.80;99.90
14741;DHT22;7462;53.530;9.414;2023-02-11T04:58:29;6.80;99.90
14741;DHT22;7462;53.530;9.414;2023-02-11T05:01:04;6.80;99.90
14741;DHT22;7462;53.530;9.414;2023-02-11T05:03:33;6.80;99.90
14741;DHT22;7462;53.530;9.414;2023-02-11T05:06:01;6.80;99.90
14741;DHT22;7462;53.530;9.414;2023-02-11T05:08:29;6.90;99.90
14741;DHT22;7462;53.530;9.414;2023-02-11T05:10:58;6.80;99.90
14741;DHT22;7462;53.530;9.414;2023-02-11T05:13:29;6.80;99.90
14741;DHT22;7462;53.530;9.414;2023-02-11T05:15:59;6.80;99.90
14741;DHT22;7462;53.530;9.414;2023-02-11T05:18:27;6.80;99.90
14741;DHT22;7462;53.530;9.414;2023-02-11T05:20:55;6.80;99.90
14741;DHT22;7462;53.530;9.414;2023-02-11T05:23:24;6.80;99.90
14741;DHT22;7462;53.530;9.414;2023-02-11T05:25:52;6.80;99.90
14741;DHT22;7462;53.530;9.414;2023-02-11T05:28:20;6.80;99.90
14741;DHT22;7462;53.530;9.414;2023-02-11T05:30:49;6.90;99.90
14741;DHT22;7462;53.530;9.414;2023-02-11T05:33:17;6.90;99.90
14741;DHT22;7462;53.530;9.414;2023-02-11T05:35:45;6.90;99.90
14741;DHT22;7462;53.530;9.414;2023-02-11T05:38:14;6.90;99.90
14741;DHT22;7462;53.530;9.414;2023-02-11T05:40:42;6.90;99.90
14741;DHT22;7462;53.530;9.414;2023-02-11T05:43:10;6.90;99.90
14741;DHT22;7462;53.530;9.414;2023-02-11T05:45:38;6.80;99.90
14741;DHT22;7462;53.530;9.414;2023-02-11T05:48:07;6.80;99.90
14741;DHT22;7462;53.530;9.414;2023-02-11T05:50:35;6.80;99.90
14741;DHT22;7462;53.530;9.414;2023-02-11T05:53:04;6.80;99.90
14741;DHT22;7462;53.530;9.414;2023-02-11T05:55:33;6.90;99.90
14741;DHT22;7462;53.530;9.414;2023-02-11T05:58:01;6.90;99.90
14741;DHT22;7462;53.530;9.414;2023-02-11T06:00:29;6.90;99.90
14741;DHT22;7462;53.530;9.414;2023-02-11T06:02:57;6.80;99.90
14741;DHT22;7462;53.530;9.414;2023-02-11T06:05:26;6.90;99.90
14741;DHT22;7462;53.530;9.414;2023-02-11T06:07:54;6.90;99.90
14741;DHT22;7462;53.530;9.414;2023-02-11T06:10:22;6.90;99.90
14741;DHT22;7462;53.530;9.414;2023-02-11T06:12:50;6.90;99.90
14741;DHT22;7462;53.530;9.414;2023-02-11T06:15:18;6.90;99.90
14741;DHT22;7462;53.530;9.414;2023-02-11T06:17:47;6.90;99.90
14741;DHT22;7462;53.530;9.414;2023-02-11T06:20:15;6.90;99.90
14741;DHT22;7462;53.530;9.414;2023-02-11T06:22:44;6.90;99.90
14741;DHT22;7462;53.530;9.414;2023-02-11T06:25:13;6.90;99.90
14741;DHT22;7462;53.530;9.414;2023-02-11T06:27:41;6.90;99.90
14741;DHT22;7462;53.530;9.414;2023-02-11T06:30:10;6.90;99.90
14741;DHT22;7462;53.530;9.414;2023-02-11T06:32:38;6.90;99.90
14741;DHT22;7462;53.530;9.414;2023-02-11T06:35:12;6.90;99.90
14741;DHT22;7462;53.530;9.414;2023-02-11T06:37:41;6.90;99.90
14741;DHT22;7462;53.530;9.414;2023-02-11T06:40:11;6.90;99.90
14741;DHT22;7462;53.530;9.414;2023-02-11T06:42:39;7.00;99.90
14741;DHT22;7462;53.530;9.414;2023-02-11T06:45:08;7.00;99.90
14741;DHT22;7462;53.530;9.414;2023-02-11T06:47:36;7.00;99.90
14741;DHT22;7462;53.530;9.414;2023-02-11T06:50:07;7.00;99.90
14741;DHT22;7462;53.530;9.414;2023-02-11T06:52:35;7.00;99.90
14741;DHT22;7462;53.530;9.414;2023-02-11T06:55:04;7.00;99.90
14741;DHT22;7462;53.530;9.414;2023-02-11T06:57:33;7.00;99.90
14741;DHT22;7462;53.530;9.414;2023-02-11T07:00:01;7.00;99.90
14741;DHT22;7462;53.530;9.414;2023-02-11T07:02:31;7.00;99.90
14741;DHT22;7462;53.530;9.414;2023-02-11T07:04:59;7.00;99.90
14741;DHT22;7462;53.530;9.414;2023-02-11T07:07:27;7.00;99.90
14741;DHT22;7462;53.530;9.414;2023-02-11T07:09:59;7.00;99.90
14741;DHT22;7462;53.530;9.414;2023-02-11T07:12:28;7.00;99.90
14741;DHT22;7462;53.530;9.414;2023-02-11T07:14:58;7.00;99.90
14741;DHT22;7462;53.530;9.414;2023-02-11T07:17:26;7.00;99.90
14741;DHT22;7462;53.530;9.414;2023-02-11T07:19:54;7.10;99.90
14741;DHT22;7462;53.530;9.414;2023-02-11T07:22:22;7.10;99.90
14741;DHT22;7462;53.530;9.414;2023-02-11T07:24:50;7.10;99.90
14741;DHT22;7462;53.530;9.414;2023-02-11T07:27:18;7.20;99.90
14741;DHT22;7462;53.530;9.414;2023-02-11T07:29:46;7.20;99.90
14741;DHT22;7462;53.530;9.414;2023-02-11T07:32:15;7.20;99.90
14741;DHT22;7462;53.530;9.414;2023-02-11T07:34:44;7.20;99.90
14741;DHT22;7462;53.530;9.414;2023-02-11T07:37:13;7.20;99.90
14741;DHT22;7462;53.530;9.414;2023-02-11T07:39:42;7.20;99.90
14741;DHT22;7462;53.530;9.414;2023-02-11T07:42:10;7.20;99.90
14741;DHT22;7462;53.530;9.414;2023-02-11T07:44:38;7.20;99.90
14741;DHT22;7462;53.530;9.414;2023-02-11T07:47:06;7.20;99.90
14741;DHT22;7462;53.530;9.414;2023-02-11T07:49:35;7.20;99.90
14741;DHT22;7462;53.530;9.414;2023-02-11T07:52:04;7.20;99.90
14741;DHT22;7462;53.530;9.414;2023-02-11T07:54:32;7.20;99.90
14741;DHT22;7462;53.530;9.414;2023-02-11T07:57:00;7.20;99.90
14741;DHT22;7462;53.530;9.414;2023-02-11T07:59:28;7.20;99.90
14741;DHT22;7462;53.530;9.414;2023-02-11T08:01:56;7.30;99.90
14741;DHT22;7462;53.530;9.414;2023-02-11T08:04:24;7.20;99.90
14741;DHT22;7462;53.530;9.414;2023-02-11T08:06:53;7.20;99.90
14741;DHT22;7462;53.530;9.414;2023-02-11T08:09:24;7.20;99.90
14741;DHT22;7462;53.530;9.414;2023-02-11T08:11:52;7.30;99.90
14741;DHT22;7462;53.530;9.414;2023-02-11T08:14:20;7.30;99.90
14741;DHT22;7462;53.530;9.414;2023-02-11T08:16:50;7.30;99.90
14741;DHT22;7462;53.530;9.414;2023-02-11T08:19:19;7.30;99.90
14741;DHT22;7462;53.530;9.414;2023-02-11T08:21:47;7.30;99.90
14741;DHT22;7462;53.530;9.414;2023-02-11T08:24:16;7.30;99.90
14741;DHT22;7462;53.530;9.414;2023-02-11T08:26:44;7.30;99.90
14741;DHT22;7462;53.530;9.414;2023-02-11T08:29:14;7.30;99.90
14741;DHT22;7462;53.530;9.414;2023-02-11T08:31:45;7.30;99.90
14741;DHT22;7462;53.530;9.414;2023-02-11T08:34:13;7.40;99.90
14741;DHT22;7462;53.530;9.414;2023-02-11T08:36:45;7.40;99.90
14741;DHT22;7462;53.530;9.414;2023-02-11T08:39:17;7.40;99.90
14741;DHT22;7462;53.530;9.414;2023-02-11T08:41:47;7.40;99.90
14741;DHT22;7462;53.530;9.414;2023-02-11T08:44:16;7.40;99.90
14741;DHT22;7462;53.530;9.414;2023-02-11T08:46:44;7.40;99.90
14741;DHT22;7462;53.530;9.414;2023-02-11T08:49:13;7.50;99.90
14741;DHT22;7462;53.530;9.414;2023-02-11T08:51:41;7.40;99.90
14741;DHT22;7462;53.530;9.414;2023-02-11T08:54:10;7.40;99.90
14741;DHT22;7462;53.530;9.414;2023-02-11T08:56:40;7.40;99.90
14741;DHT22;7462;53.530;9.414;2023-02-11T08:59:11;7.40;99.90
14741;DHT22;7462;53.530;9.414;2023-02-11T09:01:39;7.40;99.90
14741;DHT22;7462;53.530;9.414;2023-02-11T09:04:08;7.50;99.90
14741;DHT22;7462;53.530;9.414;2023-02-11T09:06:37;7.50;99.90
14741;DHT22;7462;53.530;9.414;2023-02-11T09:09:05;7.50;99.90
14741;DHT22;7462;53.530;9.414;2023-02-11T09:11:35;7.50;99.90
14741;DHT22;7462;53.530;9.414;2023-02-11T09:14:04;7.50;99.90
14741;DHT22;7462;53.530;9.414;2023-02-11T09:16:34;7.50;99.90
14741;DHT22;7462;53.530;9.414;2023-02-11T09:19:04;7.50;99.90
14741;DHT22;7462;53.530;9.414;2023-02-11T09:21:32;7.50;99.90
14741;DHT22;7462;53.530;9.414;2023-02-11T09:24:00;7.50;99.90
14741;DHT22;7462;53.530;9.414;2023-02-11T09:26:32;7.50;99.90
14741;DHT22;7462;53.530;9.414;2023-02-11T09:29:01;7.50;99.90
14741;DHT22;7462;53.530;9.414;2023-02-11T09:31:31;7.60;99.90
14741;DHT22;7462;53.530;9.414;2023-02-11T09:34:02;7.60;99.90
14741;DHT22;7462;53.530;9.414;2023-02-11T09:36:32;7.60;99.90
14741;DHT22;7462;53.530;9.414;2023-02-11T09:39:01;7.60;99.90
14741;DHT22;7462;53.530;9.414;2023-02-11T09:41:38;7.60;99.90
14741;DHT22;7462;53.530;9.414;2023-02-11T09:44:16;7.60;99.90
14741;DHT22;7462;53.530;9.414;2023-02-11T09:46:52;7.60;99.90
14741;DHT22;7462;53.530;9.414;2023-02-11T09:49:24;7.70;99.90
14741;DHT22;7462;53.530;9.414;2023-02-11T09:52:01;7.70;99.90
14741;DHT22;7462;53.530;9.414;2023-02-11T09:54:36;7.70;99.90
14741;DHT22;7462;53.530;9.414;2023-02-11T09:57:08;7.70;99.90
14741;DHT22;7462;53.530;9.414;2023-02-11T09:59:54;7.70;99.90
14741;DHT22;7462;53.530;9.414;2023-02-11T10:02:28;7.80;99.90
14741;DHT22;7462;53.530;9.414;2023-02-11T10:05:22;7.70;99.90
14741;DHT22;7462;53.530;9.414;2023-02-11T10:07:57;7.80;99.90
14741;DHT22;7462;53.530;9.414;2023-02-11T10:10:39;7.80;99.90
14741;DHT22;7462;53.530;9.414;2023-02-11T10:13:29;7.80;99.90
14741;DHT22;7462;53.530;9.414;2023-02-11T10:16:04;7.80;99.90
14741;DHT22;7462;53.530;9.414;2023-02-11T10:18:49;7.80;99.90
14741;DHT22;7462;53.530;9.414;2023-02-11T10:21:27;7.80;99.90
14741;DHT22;7462;53.530;9.414;2023-02-11T10:24:01;7.80;99.90
14741;DHT22;7462;53.530;9.414;2023-02-11T10:26:32;7.80;99.90
14741;DHT22;7462;53.530;9.414;2023-02-11T10:31:49;7.90;99.90
14741;DHT22;7462;53.530;9.414;2023-02-11T10:34:20;7.90;99.90
14741;DHT22;7462;53.530;9.414;2023-02-11T10:36:48;7.90;99.90
14741;DHT22;7462;53.530;9.414;2023-02-11T10:39:18;7.90;99.90
14741;DHT22;7462;53.530;9.414;2023-02-11T10:41:48;7.90;99.90
14741;DHT22;7462;53.530;9.414;2023-02-11T10:44:24;7.90;99.90
14741;DHT22;7462;53.530;9.414;2023-02-11T10:46:54;7.90;99.90
14741;DHT22;7462;53.530;9.414;2023-02-11T10:49:36;8.00;99.90
14741;DHT22;7462;53.530;9.414;2023-02-11T10:52:22;7.90;99.90
14741;DHT22;7462;53.530;9.414;2023-02-11T10:55:00;7.90;99.90
14741;DHT22;7462;53.530;9.414;2023-02-11T10:57:34;8.00;99.90
14741;DHT22;7462;53.530;9.414;2023-02-11T11:00:14;8.00;99.90
14741;DHT22;7462;53.530;9.414;2023-02-11T11:02:53;8.10;99.90
14741;DHT22;7462;53.530;9.414;2023-02-11T11:05:28;8.10;99.90
14741;DHT22;7462;53.530;9.414;2023-02-11T11:07:59;8.10;99.90
14741;DHT22;7462;53.530;9.414;2023-02-11T11:10:34;8.10;99.90
14741;DHT22;7462;53.530;9.414;2023-02-11T11:13:07;8.10;99.90
14741;DHT22;7462;53.530;9.414;2023-02-11T11:16:06;8.10;99.90
14741;DHT22;7462;53.530;9.414;2023-02-11T11:18:35;8.10;99.90
14741;DHT22;7462;53.530;9.414;2023-02-11T11:21:05;8.00;99.90
14741;DHT22;7462;53.530;9.414;2023-02-11T11:23:35;8.10;99.90
14741;DHT22;7462;53.530;9.414;2023-02-11T11:26:05;8.10;99.90
14741;DHT22;7462;53.530;9.414;2023-02-11T11:28:37;8.10;99.90
14741;DHT22;7462;53.530;9.414;2023-02-11T11:31:12;8.10;99.90
14741;DHT22;7462;53.530;9.414;2023-02-11T11:33:42;8.20;99.90
14741;DHT22;7462;53.530;9.414;2023-02-11T11:36:14;8.20;99.90
14741;DHT22;7462;53.530;9.414;2023-02-11T11:38:46;8.20;99.90
14741;DHT22;7462;53.530;9.414;2023-02-11T11:41:25;8.30;99.90
14741;DHT22;7462;53.530;9.414;2023-02-11T11:43:58;8.20;99.90
14741;DHT22;7462;53.530;9.414;2023-02-11T11:46:29;8.20;99.90
14741;DHT22;7462;53.530;9.414;2023-02-11T11:49:05;8.30;99.90
14741;DHT22;7462;53.530;9.414;2023-02-11T11:51:37;8.30;99.90
14741;DHT22;7462;53.530;9.414;2023-02-11T11:54:11;8.30;99.90
14741;DHT22;7462;53.530;9.414;2023-02-11T11:56:45;8.30;99.90
14741;DHT22;7462;53.530;9.414;2023-02-11T11:59:17;8.30;99.90
14741;DHT22;7462;53.530;9.414;2023-02-11T12:01:54;8.30;99.90
14741;DHT22;7462;53.530;9.414;2023-02-11T12:04:40;8.30;99.90
14741;DHT22;7462;53.530;9.414;2023-02-11T12:07:20;8.30;99.90
14741;DHT22;7462;53.530;9.414;2023-02-11T12:10:18;8.30;99.90
14741;DHT22;7462;53.530;9.414;2023-02-11T12:12:56;8.40;99.90
14741;DHT22;7462;53.530;9.414;2023-02-11T12:15:33;8.40;99.90
14741;DHT22;7462;53.530;9.414;2023-02-11T12:18:13;8.40;99.90
14741;DHT22;7462;53.530;9.414;2023-02-11T12:20:57;8.40;99.90
14741;DHT22;7462;53.530;9.414;2023-02-11T12:23:37;8.40;99.90
14741;DHT22;7462;53.530;9.414;2023-02-11T12:26:13;8.40;99.90
14741;DHT22;7462;53.530;9.414;2023-02-11T12:28:57;8.30;99.90
14741;DHT22;7462;53.530;9.414;2023-02-11T12:31:38;8.30;99.90
14741;DHT22;7462;53.530;9.414;2023-02-11T12:34:29;8.30;99.90
14741;DHT22;7462;53.530;9.414;2023-02-11T12:37:07;8.30;99.90
14741;DHT22;7462;53.530;9.414;2023-02-11T12:39:48;8.30;99.90
14741;DHT22;7462;53.530;9.414;2023-02-11T12:42:31;8.30;99.90
14741;DHT22;7462;53.530;9.414;2023-02-11T12:45:26;8.30;99.90
14741;DHT22;7462;53.530;9.414;2023-02-11T12:48:06;8.30;99.90
14741;DHT22;7462;53.530;9.414;2023-02-11T12:50:44;8.40;99.90
14741;DHT22;7462;53.530;9.414;2023-02-11T12:53:32;8.40;99.90
14741;DHT22;7462;53.530;9.414;2023-02-11T12:56:13;8.30;99.90
14741;DHT22;7462;53.530;9.414;2023-02-11T12:58:43;8.30;99.90
14741;DHT22;7462;53.530;9.414;2023-02-11T13:01:17;8.40;99.90
14741;DHT22;7462;53.530;9.414;2023-02-11T13:03:49;8.30;99.90
14741;DHT22;7462;53.530;9.414;2023-02-11T13:06:21;8.40;99.90
14741;DHT22;7462;53.530;9.414;2023-02-11T13:08:54;8.30;99.90
14741;DHT22;7462;53.530;9.414;2023-02-11T13:11:27;8.40;99.90
14741;DHT22;7462;53.530;9.414;2023-02-11T13:13:59;8.40;99.90
14741;DHT22;7462;53.530;9.414;2023-02-11T13:16:34;8.40;99.90
14741;DHT22;7462;53.530;9.414;2023-02-11T13:19:12;8.40;99.90
14741;DHT22;7462;53.530;9.414;2023-02-11T13:24:37;8.50;99.90
14741;DHT22;7462;53.530;9.414;2023-02-11T13:27:18;8.50;99.90
14741;DHT22;7462;53.530;9.414;2023-02-11T13:30:11;8.50;99.90
14741;DHT22;7462;53.530;9.414;2023-02-11T13:36:09;8.40;99.90
14741;DHT22;7462;53.530;9.414;2023-02-11T13:38:38;8.40;99.90
14741;DHT22;7462;53.530;9.414;2023-02-11T13:41:15;8.50;99.90
14741;DHT22;7462;53.530;9.414;2023-02-11T13:43:57;8.50;99.90
14741;DHT22;7462;53.530;9.414;2023-02-11T13:46:28;8.60;99.90
14741;DHT22;7462;53.530;9.414;2023-02-11T13:48:57;8.60;99.90
14741;DHT22;7462;53.530;9.414;2023-02-11T13:51:36;8.60;99.90
14741;DHT22;7462;53.530;9.414;2023-02-11T13:54:06;8.60;99.90
14741;DHT22;7462;53.530;9.414;2023-02-11T13:56:39;8.60;99.90
14741;DHT22;7462;53.530;9.414;2023-02-11T13:59:46;8.70;99.90
14741;DHT22;7462;53.530;9.414;2023-02-11T14:02:23;8.60;99.90
14741;DHT22;7462;53.530;9.414;2023-02-11T14:05:20;8.70;99.90
14741;DHT22;7462;53.530;9.414;2023-02-11T14:08:15;8.60;99.90
14741;DHT22;7462;53.530;9.414;2023-02-11T14:11:07;8.70;99.90
14741;DHT22;7462;53.530;9.414;2023-02-11T14:14:14;8.60;99.90
14741;DHT22;7462;53.530;9.414;2023-02-11T14:19:52;8.60;99.90
14741;DHT22;7462;53.530;9.414;2023-02-11T14:22:24;8.60;99.90
14741;DHT22;7462;53.530;9.414;2023-02-11T14:24:55;8.60;99.90
14741;DHT22;7462;53.530;9.414;2023-02-11T14:27:34;8.60;99.90
14741;DHT22;7462;53.530;9.414;2023-02-11T14:30:25;8.70;99.90
14741;DHT22;7462;53.530;9.414;2023-02-11T14:33:08;8.70;99.90
14741;DHT22;7462;53.530;9.414;2023-02-11T14:35:50;8.70;99.90
14741;DHT22;7462;53.530;9.414;2023-02-11T14:38:25;8.60;99.90
14741;DHT22;7462;53.530;9.414;2023-02-11T14:41:03;8.60;99.90
14741;DHT22;7462;53.530;9.414;2023-02-11T14:43:36;8.60;99.90
14741;DHT22;7462;53.530;9.414;2023-02-11T14:46:07;8.60;99.90
14741;DHT22;7462;53.530;9.414;2023-02-11T14:48:38;8.60;99.90
14741;DHT22;7462;53.530;9.414;2023-02-11T14:51:14;8.50;99.90
14741;DHT22;7462;53.530;9.414;2023-02-11T14:53:45;8.60;99.90
14741;DHT22;7462;53.530;9.414;2023-02-11T14:56:20;8.60;99.90
14741;DHT22;7462;53.530;9.414;2023-02-11T14:58:49;8.60;99.90
14741;DHT22;7462;53.530;9.414;2023-02-11T15:01:24;8.60;99.90
14741;DHT22;7462;53.530;9.414;2023-02-11T15:03:54;8.60;99.90
14741;DHT22;7462;53.530;9.414;2023-02-11T15:06:29;8.60;99.90
14741;DHT22;7462;53.530;9.414;2023-02-11T15:09:02;8.50;99.90
14741;DHT22;7462;53.530;9.414;2023-02-11T15:11:33;8.60;99.90
14741;DHT22;7462;53.530;9.414;2023-02-11T15:14:08;8.50;99.90
14741;DHT22;7462;53.530;9.414;2023-02-11T15:16:40;8.50;99.90
14741;DHT22;7462;53.530;9.414;2023-02-11T15:19:18;8.60;99.90
14741;DHT22;7462;53.530;9.414;2023-02-11T15:21:48;8.50;99.90
14741;DHT22;7462;53.530;9.414;2023-02-11T15:24:23;8.50;99.90
14741;DHT22;7462;53.530;9.414;2023-02-11T15:26:56;8.50;99.90
14741;DHT22;7462;53.530;9.414;2023-02-11T15:29:24;8.50;99.90
14741;DHT22;7462;53.530;9.414;2023-02-11T15:32:04;8.50;99.90
14741;DHT22;7462;53.530;9.414;2023-02-11T15:34:33;8.40;99.90
14741;DHT22;7462;53.530;9.414;2023-02-11T15:37:03;8.50;99.90
14741;DHT22;7462;53.530;9.414;2023-02-11T15:39:33;8.50;99.90
14741;DHT22;7462;53.530;9.414;2023-02-11T15:42:16;8.50;99.90
14741;DHT22;7462;53.530;9.414;2023-02-11T15:44:46;8.40;99.90
14741;DHT22;7462;53.530;9.414;2023-02-11T15:47:28;8.50;99.90
14741;DHT22;7462;53.530;9.414;2023-02-11T15:49:56;8.40;99.90
14741;DHT22;7462;53.530;9.414;2023-02-11T15:52:27;8.40;99.90
14741;DHT22;7462;53.530;9.414;2023-02-11T15:54:57;8.40;99.90
14741;DHT22;7462;53.530;9.414;2023-02-11T15:57:27;8.40;99.90
14741;DHT22;7462;53.530;9.414;2023-02-11T15:59:56;8.40;99.90
14741;DHT22;7462;53.530;9.414;2023-02-11T16:02:37;8.40;99.90
14741;DHT22;7462;53.530;9.414;2023-02-11T16:05:24;8.50;99.90
14741;DHT22;7462;53.530;9.414;2023-02-11T16:07:54;8.40;99.90
14741;DHT22;7462;53.530;9.414;2023-02-11T16:10:26;8.40;99.90
14741;DHT22;7462;53.530;9.414;2023-02-11T16:13:14;8.40;99.90
14741;DHT22;7462;53.530;9.414;2023-02-11T16:15:49;8.40;99.90
14741;DHT22;7462;53.530;9.414;2023-02-11T16:18:33;8.40;99.90
14741;DHT22;7462;53.530;9.414;2023-02-11T16:21:11;8.40;99.90
14741;DHT22;7462;53.530;9.414;2023-02-11T16:23:49;8.40;99.90
14741;DHT22;7462;53.530;9.414;2023-02-11T16:26:25;8.40;99.90
14741;DHT22;7462;53.530;9.414;2023-02-11T16:29:02;8.40;99.90
14741;DHT22;7462;53.530;9.414;2023-02-11T16:31:32;8.40;99.90
14741;DHT22;7462;53.530;9.414;2023-02-11T16:34:00;8.40;99.90
14741;DHT22;7462;53.530;9.414;2023-02-11T16:36:28;8.40;99.90
14741;DHT22;7462;53.530;9.414;2023-02-11T16:38:58;8.40;99.90
14741;DHT22;7462;53.530;9.414;2023-02-11T16:41:26;8.40;99.90
14741;DHT22;7462;53.530;9.414;2023-02-11T16:43:56;8.30;99.90
14741;DHT22;7462;53.530;9.414;2023-02-11T16:46:24;8.40;99.90
14741;DHT22;7462;53.530;9.414;2023-02-11T16:48:53;8.40;99.90
14741;DHT22;7462;53.530;9.414;2023-02-11T16:51:22;8.40;99.90
14741;DHT22;7462;53.530;9.414;2023-02-11T16:53:50;8.30;99.90
14741;DHT22;7462;53.530;9.414;2023-02-11T16:56:19;8.30;99.90
14741;DHT22;7462;53.530;9.414;2023-02-11T16:58:47;8.30;99.90